Corning, California
Current Conditions -  °F | °C
As of 5:54 PM on Saturday 25 Oct 2014 (Local Time) from KRBL Reporting Station
Broken Clouds Broken Clouds  
Wind Chill: 66°   Ceiling: 8500
Heat Index: 66°   Visibility: 10mi
Dew Point: 53°   Wind: 21mph
Humidity: 63%   Direction: 170°S
Pressure: 29.93"   Gusts: 29mph
Location:  39.93°N, 122.17°W
Report Text: KRBL 260054Z AUTO 17018G25KT 10SM FEW048 SCT070 BKN085 19/12 A2993 RMK AO2 PK WND 15029/2359 LTG DSNT N AND NE RAB33E49 SLP133 P0000 T01890117
Loading
Personal Weather Stations






























Interactive Weather Map
Tropical Storm Tracking
New forecast layout! Learn more

10-Day Weather Forecast

Advertisements
Track Severe Weather on mobile